Time;durP1;ratioP1;P1;durP2;ratioP2;P2;SDS_P1;SDS_P2;PMS_P1;PMS_P2;Temp;Humidity;BMP_temperature;BMP_pressure;BME280_temperature;BME280_humidity;BME280_pressure;Samples;Min_cycle;Max_cycle;Signal;HPM_P1;HPM_P2
2023/05/29 00:00:47;;;;;;;2.20;2.00;;;23.60;55.70;;;;;;4984566;28;20476;-72
2023/05/29 00:03:17;;;;;;;2.97;2.50;;;23.60;55.90;;;;;;4984713;28;20458;-72
2023/05/29 00:05:46;;;;;;;5.07;3.00;;;23.60;55.60;;;;;;4976930;28;20470;-70
2023/05/29 00:08:15;;;;;;;6.00;2.80;;;23.60;55.50;;;;;;4949419;28;20491;-68
2023/05/29 00:10:45;;;;;;;3.00;2.10;;;23.60;55.60;;;;;;4950318;29;20437;-71
2023/05/29 00:13:13;;;;;;;2.73;2.50;;;23.60;55.90;;;;;;4949243;29;20480;-70
2023/05/29 00:15:42;;;;;;;2.90;2.60;;;23.60;56.20;;;;;;4962868;28;20470;-70
2023/05/29 00:18:10;;;;;;;2.93;2.43;;;23.60;56.30;;;;;;4963665;28;20458;-70
2023/05/29 00:20:39;;;;;;;5.00;3.07;;;23.60;56.10;;;;;;4963621;28;20993;-70
2023/05/29 00:23:07;;;;;;;3.80;2.20;;;23.60;55.60;;;;;;4963596;28;20454;-70
2023/05/29 00:25:35;;;;;;;2.87;2.57;;;23.60;56.20;;;;;;4947593;28;20894;-72
2023/05/29 00:28:06;;;;;;;3.90;2.40;;;23.60;56.50;;;;;;4964968;28;20448;-73
2023/05/29 00:30:34;;;;;;;2.97;2.67;;;23.60;56.70;;;;;;4964243;28;20963;-72
2023/05/29 00:33:03;;;;;;;3.00;2.40;;;23.60;56.70;;;;;;4963130;28;20475;-71
2023/05/29 00:35:31;;;;;;;3.30;2.43;;;23.50;56.70;;;;;;4968372;28;20499;-72
2023/05/29 00:37:59;;;;;;;5.80;2.40;;;23.50;56.10;;;;;;4957096;28;20451;-72
2023/05/29 00:40:28;;;;;;;3.40;2.67;;;23.50;56.30;;;;;;4983916;28;20790;-72
2023/05/29 00:42:56;;;;;;;3.10;2.80;;;23.50;56.20;;;;;;4971097;28;20487;-72
2023/05/29 00:45:26;;;;;;;3.50;3.07;;;23.50;56.00;;;;;;4995120;28;20471;-72
2023/05/29 00:47:55;;;;;;;2.83;2.43;;;23.50;55.60;;;;;;4982593;28;20449;-71
2023/05/29 00:50:24;;;;;;;3.10;2.70;;;23.50;55.70;;;;;;4961518;28;20468;-72
2023/05/29 00:52:53;;;;;;;2.90;2.60;;;23.50;55.70;;;;;;4979824;28;20480;-72
2023/05/29 00:55:21;;;;;;;2.70;2.50;;;23.50;55.90;;;;;;4973754;28;20468;-72
2023/05/29 00:57:50;;;;;;;3.43;2.60;;;23.50;55.90;;;;;;4976283;28;21021;-71
2023/05/29 01:00:20;;;;;;;3.60;3.30;;;23.50;56.10;;;;;;4972939;28;20449;-71
2023/05/29 01:02:52;;;;;;;2.33;1.97;;;23.50;56.10;;;;;;4961822;28;20836;-71
2023/05/29 01:05:21;;;;;;;2.87;2.57;;;23.60;56.50;;;;;;4970843;28;20453;-72
2023/05/29 01:07:50;;;;;;;3.43;2.87;;;23.50;56.80;;;;;;4966424;28;20454;-72
2023/05/29 01:10:18;;;;;;;2.77;2.57;;;23.50;56.20;;;;;;4962254;28;20791;-72
2023/05/29 01:12:53;;;;;;;3.10;2.30;;;23.50;56.10;;;;;;4983855;28;20486;-73
2023/05/29 01:15:33;;;;;;;3.80;2.27;;;23.50;56.10;;;;;;4973293;28;20471;-72
2023/05/29 01:18:18;;;;;;;2.47;2.20;;;23.50;56.20;;;;;;4973955;28;20456;-72
2023/05/29 01:20:53;;;;;;;3.67;2.83;;;23.50;56.40;;;;;;4983750;28;20495;-72
2023/05/29 01:23:45;;;;;;;3.60;2.63;;;23.50;56.50;;;;;;4961172;28;20821;-72
2023/05/29 01:26:25;;;;;;;2.57;2.37;;;23.50;56.00;;;;;;4959029;28;21004;-72
2023/05/29 01:29:00;;;;;;;3.57;2.00;;;23.50;55.90;;;;;;4963959;28;20498;-72
2023/05/29 01:31:31;;;;;;;2.93;2.73;;;23.50;55.90;;;;;;4962319;28;20454;-72
2023/05/29 01:34:00;;;;;;;2.67;2.40;;;23.50;56.20;;;;;;4948481;28;21024;-71
2023/05/29 01:36:30;;;;;;;3.20;2.10;;;23.50;56.40;;;;;;4961968;28;20467;-73
2023/05/29 01:39:00;;;;;;;2.90;2.10;;;23.50;56.50;;;;;;4963180;28;20841;-72
2023/05/29 01:41:29;;;;;;;3.13;2.20;;;23.50;56.70;;;;;;4948464;28;20932;-72
2023/05/29 01:44:03;;;;;;;2.93;2.53;;;23.40;56.40;;;;;;4963733;28;20492;-73
2023/05/29 01:46:31;;;;;;;5.00;2.57;;;23.40;56.60;;;;;;4958023;28;20461;-72
2023/05/29 01:49:01;;;;;;;2.50;2.30;;;23.50;56.60;;;;;;4946688;29;21240;-71
2023/05/29 01:51:31;;;;;;;3.97;2.57;;;23.40;56.20;;;;;;4940353;28;20544;-72
2023/05/29 01:54:00;;;;;;;3.20;2.30;;;23.40;56.60;;;;;;4962122;28;20538;-72
2023/05/29 01:56:30;;;;;;;3.43;2.30;;;23.40;56.90;;;;;;4961335;28;20509;-72
2023/05/29 01:59:03;;;;;;;2.20;1.90;;;23.40;57.10;;;;;;4961061;28;20493;-72
2023/05/29 02:01:32;;;;;;;2.30;2.10;;;23.40;57.20;;;;;;4947162;28;21019;-71
2023/05/29 02:04:01;;;;;;;3.30;2.10;;;23.40;57.10;;;;;;4957372;28;20546;-72
2023/05/29 02:06:30;;;;;;;2.70;2.33;;;23.40;57.40;;;;;;4949159;28;20500;-72
2023/05/29 02:08:59;;;;;;;2.43;2.23;;;23.40;57.60;;;;;;4962649;28;21037;-72
2023/05/29 02:11:27;;;;;;;3.20;2.90;;;23.40;57.70;;;;;;4948318;28;20463;-72
2023/05/29 02:13:56;;;;;;;2.50;2.17;;;23.30;57.60;;;;;;4949027;29;20493;-73
2023/05/29 02:16:27;;;;;;;2.30;2.10;;;23.30;57.60;;;;;;4965222;28;20912;-72
2023/05/29 02:18:57;;;;;;;2.77;2.27;;;23.30;57.50;;;;;;4963062;28;20497;-72
2023/05/29 02:21:25;;;;;;;2.90;2.40;;;23.30;59.00;;;;;;4964506;28;20478;-73
2023/05/29 02:23:54;;;;;;;2.73;2.47;;;23.30;58.00;;;;;;4943934;29;20791;-72
2023/05/29 02:26:22;;;;;;;2.80;2.50;;;23.30;57.30;;;;;;4965145;28;20453;-72
2023/05/29 02:28:51;;;;;;;2.33;2.13;;;23.30;57.50;;;;;;4964851;28;20447;-72
2023/05/29 02:31:21;;;;;;;2.50;2.30;;;23.30;57.80;;;;;;4973797;28;20464;-73
2023/05/29 02:33:51;;;;;;;2.40;2.20;;;23.30;58.10;;;;;;4983452;28;20556;-72
2023/05/29 02:36:19;;;;;;;2.67;2.27;;;23.30;58.00;;;;;;4984070;28;20451;-72
2023/05/29 02:38:47;;;;;;;2.27;2.07;;;23.30;57.80;;;;;;4965744;28;20814;-72
2023/05/29 02:41:17;;;;;;;2.30;2.00;;;23.30;58.00;;;;;;4975892;28;20482;-72
2023/05/29 02:43:46;;;;;;;3.73;2.53;;;23.30;58.10;;;;;;4949555;29;20441;-72
2023/05/29 02:46:14;;;;;;;2.40;2.20;;;23.30;58.20;;;;;;4963346;28;20531;-72
2023/05/29 02:48:43;;;;;;;2.43;2.20;;;23.30;58.10;;;;;;4953007;28;20447;-72
2023/05/29 02:51:14;;;;;;;2.53;2.00;;;23.30;58.30;;;;;;4967742;28;20700;-71
2023/05/29 02:53:42;;;;;;;2.30;2.00;;;23.30;58.10;;;;;;4965529;28;21026;-72
2023/05/29 02:56:12;;;;;;;4.33;2.30;;;23.30;57.90;;;;;;4968423;28;20466;-73
2023/05/29 02:58:40;;;;;;;3.00;2.13;;;23.30;58.10;;;;;;4968189;28;20475;-73
2023/05/29 03:01:08;;;;;;;3.13;2.60;;;23.20;58.20;;;;;;4966287;28;20443;-72
2023/05/29 03:03:37;;;;;;;3.20;2.30;;;23.20;57.90;;;;;;4949949;29;20480;-72
2023/05/29 03:06:07;;;;;;;2.90;2.60;;;23.20;58.00;;;;;;4966916;28;20481;-73
2023/05/29 03:08:39;;;;;;;2.80;2.37;;;23.20;58.90;;;;;;4949420;28;20489;-70
2023/05/29 03:11:08;;;;;;;2.27;1.93;;;23.30;57.50;;;;;;4956329;28;20457;-72
2023/05/29 03:13:37;;;;;;;3.33;2.70;;;23.20;57.30;;;;;;4966888;28;20473;-72
2023/05/29 03:16:09;;;;;;;2.60;2.40;;;23.20;57.50;;;;;;4964997;28;20488;-72
2023/05/29 03:18:41;;;;;;;2.40;2.20;;;23.20;57.00;;;;;;4948056;29;20490;-71
2023/05/29 03:21:09;;;;;;;2.60;2.13;;;23.20;57.40;;;;;;4964650;28;20449;-71
2023/05/29 03:23:39;;;;;;;3.77;2.60;;;23.20;57.70;;;;;;4963712;28;20458;-72
2023/05/29 03:26:08;;;;;;;2.93;2.60;;;23.20;56.70;;;;;;4965554;28;20473;-72
2023/05/29 03:28:36;;;;;;;2.67;2.30;;;23.20;56.80;;;;;;4945124;29;20574;-72
2023/05/29 03:31:08;;;;;;;3.43;2.10;;;23.20;57.40;;;;;;4966303;28;20468;-72
2023/05/29 03:33:37;;;;;;;2.70;1.77;;;23.20;57.10;;;;;;4953456;28;20973;-71
2023/05/29 03:36:23;;;;;;;2.47;2.20;;;23.20;57.50;;;;;;4949842;28;20465;-71
2023/05/29 03:38:52;;;;;;;3.70;2.23;;;23.20;56.70;;;;;;4963317;28;20450;-68
2023/05/29 03:41:21;;;;;;;5.70;2.77;;;23.10;56.70;;;;;;4966598;28;20446;-69
2023/05/29 03:43:52;;;;;;;2.80;1.70;;;23.20;56.90;;;;;;4959768;28;20455;-70
2023/05/29 03:46:23;;;;;;;3.03;2.17;;;23.20;57.00;;;;;;4964415;28;20453;-69
2023/05/29 03:48:51;;;;;;;2.13;1.93;;;23.10;56.50;;;;;;4951166;28;20486;-70
2023/05/29 03:51:19;;;;;;;3.10;2.17;;;23.10;56.90;;;;;;4965288;28;20466;-70
2023/05/29 03:53:49;;;;;;;4.40;2.87;;;23.10;56.60;;;;;;4964121;28;20840;-70
2023/05/29 03:56:21;;;;;;;2.93;2.63;;;23.10;56.20;;;;;;4964913;28;20960;-70
2023/05/29 03:58:51;;;;;;;2.47;2.10;;;23.10;56.40;;;;;;4964474;28;20950;-70
2023/05/29 04:01:20;;;;;;;2.87;2.40;;;23.10;56.40;;;;;;4961777;28;20447;-70
2023/05/29 04:03:48;;;;;;;2.90;2.70;;;23.10;56.30;;;;;;4945984;29;20457;-70
2023/05/29 04:06:17;;;;;;;3.67;2.30;;;23.10;56.40;;;;;;4964667;28;20459;-70
2023/05/29 04:08:46;;;;;;;2.77;2.10;;;23.10;56.50;;;;;;4962451;28;20529;-70
2023/05/29 04:11:15;;;;;;;2.67;1.93;;;23.00;56.40;;;;;;4966155;28;20446;-70
2023/05/29 04:13:46;;;;;;;4.57;2.40;;;23.00;56.50;;;;;;4965039;28;20471;-70
2023/05/29 04:16:15;;;;;;;2.30;2.10;;;23.00;56.40;;;;;;4964000;28;20474;-70
2023/05/29 04:18:44;;;;;;;2.73;2.17;;;23.00;56.60;;;;;;4963406;28;20501;-70
2023/05/29 04:21:12;;;;;;;2.47;2.20;;;23.00;56.60;;;;;;4965123;28;20458;-70
2023/05/29 04:23:42;;;;;;;2.23;2.03;;;23.00;56.90;;;;;;4957565;28;20455;-70
2023/05/29 04:26:12;;;;;;;1.93;1.77;;;23.00;57.20;;;;;;4965546;28;20466;-70
2023/05/29 04:28:42;;;;;;;2.60;2.10;;;23.00;57.40;;;;;;4960321;28;20459;-69
2023/05/29 04:31:13;;;;;;;2.77;2.33;;;23.00;57.20;;;;;;4965398;28;20448;-70
2023/05/29 04:33:45;;;;;;;3.37;2.17;;;23.00;56.60;;;;;;4964746;28;21053;-69
2023/05/29 04:36:14;;;;;;;4.73;2.30;;;23.00;56.80;;;;;;4965492;28;20470;-70
2023/05/29 04:38:47;;;;;;;2.57;1.93;;;23.00;56.60;;;;;;4961807;28;20511;-70
2023/05/29 04:41:15;;;;;;;2.50;2.13;;;23.00;56.70;;;;;;4960056;28;20499;-70
2023/05/29 04:43:44;;;;;;;3.30;2.20;;;23.00;57.20;;;;;;4964718;28;20840;-69
2023/05/29 04:46:15;;;;;;;2.17;1.77;;;23.00;57.10;;;;;;4948344;28;20548;-70
2023/05/29 04:48:46;;;;;;;2.93;1.87;;;23.00;57.40;;;;;;4963649;28;20567;-70
2023/05/29 04:51:16;;;;;;;3.53;2.30;;;23.00;56.90;;;;;;4964188;28;20877;-69
2023/05/29 04:53:44;;;;;;;2.07;1.80;;;23.00;57.50;;;;;;4961123;28;20789;-68
2023/05/29 04:56:13;;;;;;;2.63;2.20;;;23.00;57.80;;;;;;4963187;28;20477;-70
2023/05/29 04:58:42;;;;;;;2.23;1.97;;;23.00;58.00;;;;;;4964698;28;20994;-70
2023/05/29 05:01:14;;;;;;;2.80;2.60;;;23.00;58.10;;;;;;4962428;28;20501;-70
2023/05/29 05:03:44;;;;;;;3.53;2.00;;;22.90;58.30;;;;;;4949075;29;20445;-70
2023/05/29 05:06:16;;;;;;;3.17;2.20;;;22.90;58.30;;;;;;4963162;28;21013;-70
2023/05/29 05:08:45;;;;;;;2.60;2.30;;;22.90;57.90;;;;;;4963434;28;20955;-69
2023/05/29 05:11:14;;;;;;;3.63;1.90;;;22.90;58.30;;;;;;4962595;28;20484;-69
2023/05/29 05:13:42;;;;;;;4.07;2.50;;;22.90;58.20;;;;;;4964133;28;20997;-70
2023/05/29 05:16:11;;;;;;;4.77;2.20;;;22.90;57.50;;;;;;4962669;28;20529;-70
2023/05/29 05:18:41;;;;;;;2.57;2.07;;;22.90;57.60;;;;;;4946852;29;20444;-70
2023/05/29 05:21:11;;;;;;;2.70;2.30;;;22.90;57.90;;;;;;4964676;28;20460;-70
2023/05/29 05:23:41;;;;;;;2.60;2.17;;;22.90;57.60;;;;;;4962364;28;20453;-69
2023/05/29 05:26:27;;;;;;;4.00;2.00;;;22.90;57.50;;;;;;4946232;28;20476;-69
2023/05/29 05:28:56;;;;;;;3.50;2.20;;;22.90;57.70;;;;;;4963841;28;20454;-70
2023/05/29 05:31:28;;;;;;;3.60;2.10;;;22.90;57.40;;;;;;4947203;28;20478;-71
2023/05/29 05:33:56;;;;;;;2.60;2.13;;;22.90;57.50;;;;;;4948414;28;20532;-69
2023/05/29 05:36:26;;;;;;;3.13;2.00;;;22.90;57.20;;;;;;4962062;28;20963;-69
2023/05/29 05:39:00;;;;;;;2.40;1.90;;;22.90;57.80;;;;;;4962312;28;20483;-69
2023/05/29 05:41:29;;;;;;;2.90;2.23;;;22.90;57.20;;;;;;4963033;28;21187;-70
2023/05/29 05:43:57;;;;;;;2.83;2.00;;;22.90;56.90;;;;;;4946438;29;20544;-70
2023/05/29 05:46:47;;;;;;;1.80;1.53;;;22.90;56.90;;;;;;4946804;28;20911;-71
2023/05/29 05:49:16;;;;;;;2.90;1.80;;;22.90;57.80;;;;;;4962767;28;20461;-70
2023/05/29 05:51:46;;;;;;;2.63;1.70;;;22.90;57.80;;;;;;4943631;28;20457;-70
2023/05/29 05:54:17;;;;;;;3.07;2.43;;;22.90;57.50;;;;;;4940204;28;20472;-70
2023/05/29 05:56:46;;;;;;;2.17;1.63;;;22.90;57.40;;;;;;4961432;28;21058;-69
2023/05/29 05:59:18;;;;;;;2.63;2.03;;;22.90;57.90;;;;;;4979941;28;20496;-70
2023/05/29 06:01:46;;;;;;;2.80;2.10;;;22.90;58.00;;;;;;4948713;28;20465;-70
2023/05/29 06:04:15;;;;;;;2.33;1.73;;;22.90;58.10;;;;;;4978676;28;20474;-69
2023/05/29 06:06:43;;;;;;;1.93;1.60;;;22.90;57.70;;;;;;4961334;28;20465;-69
2023/05/29 06:09:13;;;;;;;3.53;2.47;;;22.90;58.00;;;;;;4945353;28;20901;-70
2023/05/29 06:11:43;;;;;;;3.20;2.30;;;22.90;58.00;;;;;;4957931;28;20459;-70
2023/05/29 06:14:11;;;;;;;4.40;1.97;;;22.90;57.50;;;;;;4985991;28;20472;-70
2023/05/29 06:16:40;;;;;;;2.63;2.17;;;22.90;56.80;;;;;;4982607;28;21058;-70
2023/05/29 06:19:10;;;;;;;2.40;2.00;;;22.90;56.60;;;;;;4981688;28;20459;-69
2023/05/29 06:21:58;;;;;;;2.07;1.77;;;22.90;56.90;;;;;;4966755;28;20461;-69
2023/05/29 06:24:30;;;;;;;2.43;1.63;;;22.90;57.70;;;;;;4964073;28;20896;-70
2023/05/29 06:26:59;;;;;;;3.33;1.87;;;22.90;57.40;;;;;;4988010;28;20935;-71
2023/05/29 06:29:27;;;;;;;2.70;2.07;;;22.90;57.70;;;;;;4987533;28;20445;-71
2023/05/29 06:31:56;;;;;;;2.17;1.80;;;22.90;57.60;;;;;;4981241;28;20479;-70
2023/05/29 06:34:24;;;;;;;2.77;1.70;;;22.90;58.90;;;;;;4966399;28;20980;-70
2023/05/29 06:36:53;;;;;;;2.80;1.77;;;22.80;56.60;;;;;;4974180;28;20486;-71
2023/05/29 06:39:21;;;;;;;3.37;1.97;;;22.80;57.40;;;;;;4971709;28;20464;-70
2023/05/29 06:41:51;;;;;;;2.50;1.80;;;22.80;56.60;;;;;;4975328;28;20500;-70
2023/05/29 06:44:19;;;;;;;2.80;2.10;;;22.80;57.30;;;;;;4964835;28;20483;-70
2023/05/29 06:46:48;;;;;;;2.50;2.00;;;22.80;57.80;;;;;;4973086;28;20829;-70
2023/05/29 06:49:18;;;;;;;4.50;1.87;;;22.80;57.70;;;;;;4980781;28;20839;-69
2023/05/29 06:51:46;;;;;;;5.27;2.63;;;22.80;57.30;;;;;;4965895;28;20853;-72
2023/05/29 06:54:25;;;;;;;2.43;1.50;;;22.90;57.00;;;;;;4969841;28;20501;-71
2023/05/29 06:56:56;;;;;;;2.63;1.87;;;22.80;57.20;;;;;;4938974;28;20482;-73
2023/05/29 06:59:39;;;;;;;5.90;2.53;;;22.80;57.40;;;;;;4962582;28;20954;-72
2023/05/29 07:02:09;;;;;;;2.63;1.97;;;22.80;56.80;;;;;;4961199;28;20639;-72
2023/05/29 07:04:38;;;;;;;3.60;2.60;;;22.80;57.40;;;;;;4958912;28;20507;-73
2023/05/29 07:07:06;;;;;;;5.73;2.53;;;22.80;56.80;;;;;;4945741;28;20492;-72
2023/05/29 07:09:36;;;;;;;4.57;2.43;;;22.80;56.70;;;;;;4961752;28;20457;-73
2023/05/29 07:12:07;;;;;;;2.00;1.80;;;22.80;56.40;;;;;;4958947;28;21135;-71
2023/05/29 07:14:35;;;;;;;3.30;2.10;;;22.80;56.80;;;;;;4963316;28;20553;-71
2023/05/29 07:17:04;;;;;;;4.70;2.47;;;22.80;56.70;;;;;;4960005;28;20485;-73
2023/05/29 07:19:33;;;;;;;3.40;2.07;;;22.80;57.20;;;;;;4962339;28;20446;-71
2023/05/29 07:22:03;;;;;;;4.07;2.70;;;22.80;57.20;;;;;;4949708;28;20493;-73
2023/05/29 07:24:33;;;;;;;3.60;2.27;;;22.80;57.20;;;;;;4946434;29;20460;-72
2023/05/29 07:27:06;;;;;;;3.50;1.97;;;22.80;57.00;;;;;;4954506;28;20981;-72
2023/05/29 07:29:35;;;;;;;3.43;2.57;;;22.80;57.10;;;;;;4940134;28;20546;-71
2023/05/29 07:32:04;;;;;;;4.20;1.97;;;22.80;57.10;;;;;;4957195;28;20484;-73
2023/05/29 07:34:32;;;;;;;4.23;2.00;;;22.80;56.90;;;;;;4963636;28;20952;-72
2023/05/29 07:37:03;;;;;;;2.40;1.90;;;22.80;57.10;;;;;;4965433;28;20484;-72
2023/05/29 07:39:35;;;;;;;3.10;1.80;;;22.80;57.10;;;;;;4964645;28;20441;-72
2023/05/29 07:42:14;;;;;;;2.80;1.80;;;22.80;57.30;;;;;;4957773;28;20524;-72
2023/05/29 07:44:44;;;;;;;6.27;2.33;;;22.80;57.30;;;;;;4950794;29;20549;-72
2023/05/29 07:47:12;;;;;;;3.97;1.70;;;22.80;57.30;;;;;;4964155;28;20504;-72
2023/05/29 07:49:46;;;;;;;3.10;2.03;;;22.80;57.20;;;;;;4950545;29;20748;-73
2023/05/29 07:52:15;;;;;;;3.00;2.00;;;22.80;57.10;;;;;;4965000;28;20559;-72
2023/05/29 07:54:43;;;;;;;3.87;2.17;;;22.80;57.10;;;;;;4938461;29;20494;-73
2023/05/29 07:57:14;;;;;;;2.87;1.50;;;22.80;57.20;;;;;;4956257;28;20882;-72
2023/05/29 07:59:45;;;;;;;2.70;1.83;;;22.80;57.40;;;;;;4963910;28;20441;-72
2023/05/29 08:02:13;;;;;;;3.10;2.40;;;22.80;57.30;;;;;;4963307;28;20493;-70
2023/05/29 08:04:57;;;;;;;3.67;2.30;;;22.80;57.30;;;;;;4959299;28;20565;-71
2023/05/29 08:07:26;;;;;;;3.10;2.10;;;22.80;57.20;;;;;;4934200;28;20498;-73
2023/05/29 08:09:55;;;;;;;2.63;2.10;;;22.80;57.20;;;;;;4946175;29;20949;-72
2023/05/29 08:12:28;;;;;;;2.37;2.00;;;22.80;57.30;;;;;;4965858;28;20465;-72
2023/05/29 08:14:58;;;;;;;3.20;2.20;;;22.80;57.40;;;;;;4960482;28;20461;-73
2023/05/29 08:17:26;;;;;;;5.10;2.50;;;22.80;57.40;;;;;;4948472;28;20465;-73
2023/05/29 08:19:55;;;;;;;3.53;1.70;;;22.80;57.20;;;;;;4949899;29;20441;-72
2023/05/29 08:22:29;;;;;;;3.40;2.03;;;22.80;57.30;;;;;;4944456;28;20962;-72
2023/05/29 08:24:58;;;;;;;3.40;2.07;;;22.80;57.80;;;;;;4945550;29;21042;-72
2023/05/29 08:27:27;;;;;;;2.70;2.17;;;22.80;57.20;;;;;;4979908;28;21015;-73
2023/05/29 08:29:56;;;;;;;3.97;2.30;;;22.80;57.10;;;;;;4972141;28;20436;-72
2023/05/29 08:32:25;;;;;;;3.43;2.23;;;22.80;57.00;;;;;;4963754;28;20481;-72
2023/05/29 08:34:54;;;;;;;3.90;2.37;;;22.70;57.10;;;;;;4947923;29;20898;-72
2023/05/29 08:37:23;;;;;;;2.70;1.93;;;22.80;57.20;;;;;;4963343;28;20489;-73
2023/05/29 08:39:52;;;;;;;2.33;1.60;;;22.70;57.00;;;;;;4961961;28;20458;-71
2023/05/29 08:42:25;;;;;;;3.80;2.37;;;22.70;57.00;;;;;;4947432;28;20827;-73
2023/05/29 08:44:57;;;;;;;2.07;1.80;;;22.70;57.00;;;;;;4964173;28;20515;-73
2023/05/29 08:47:28;;;;;;;2.43;2.00;;;22.70;57.10;;;;;;4956897;28;20480;-72
2023/05/29 08:49:57;;;;;;;3.53;2.67;;;22.70;57.00;;;;;;4961025;28;20514;-73
2023/05/29 08:52:26;;;;;;;2.47;2.10;;;22.70;57.10;;;;;;4940393;28;20504;-73
2023/05/29 08:54:56;;;;;;;2.93;2.03;;;22.70;57.00;;;;;;4947039;29;20734;-72
2023/05/29 08:57:26;;;;;;;2.93;2.00;;;22.70;57.10;;;;;;4963266;28;20477;-73
2023/05/29 08:59:57;;;;;;;3.60;1.90;;;22.70;57.00;;;;;;4950102;28;20454;-71
2023/05/29 09:02:27;;;;;;;3.70;2.30;;;22.70;57.00;;;;;;4944462;28;20473;-72
2023/05/29 09:04:56;;;;;;;5.57;2.43;;;22.70;58.10;;;;;;4949222;28;20473;-71
2023/05/29 09:07:25;;;;;;;4.20;2.77;;;22.70;57.10;;;;;;4943563;28;20470;-73
2023/05/29 09:09:54;;;;;;;3.13;2.03;;;22.70;56.90;;;;;;4959511;28;20859;-72
2023/05/29 09:12:23;;;;;;;3.50;2.53;;;22.60;56.70;;;;;;4944400;28;20481;-73
2023/05/29 09:14:51;;;;;;;3.47;2.50;;;22.60;56.90;;;;;;4962629;28;20520;-73
2023/05/29 09:17:21;;;;;;;2.40;1.90;;;22.60;57.00;;;;;;4959727;28;20976;-73
2023/05/29 09:19:49;;;;;;;5.73;2.43;;;22.70;57.10;;;;;;4954206;28;20958;-72
2023/05/29 09:22:18;;;;;;;8.10;3.73;;;22.60;54.20;;;;;;4957716;28;20575;-73
2023/05/29 09:24:50;;;;;;;11.53;3.77;;;22.10;49.60;;;;;;4943567;28;20468;-72
2023/05/29 09:27:20;;;;;;;8.23;3.53;;;21.90;51.20;;;;;;4943112;28;20511;-71
2023/05/29 09:29:49;;;;;;;7.33;3.50;;;22.00;52.50;;;;;;4949509;28;20541;-72
2023/05/29 09:32:19;;;;;;;11.85;4.00;;;22.20;53.10;;;;;;4931620;28;20449;-72
2023/05/29 09:34:49;;;;;;;10.90;3.70;;;22.30;51.50;;;;;;4941864;28;20704;-73
2023/05/29 09:37:22;;;;;;;8.80;4.63;;;22.30;51.70;;;;;;4939935;28;20499;-72
2023/05/29 09:39:52;;;;;;;8.60;4.63;;;22.40;52.40;;;;;;4944804;28;20444;-73
2023/05/29 09:42:22;;;;;;;7.33;3.77;;;22.50;51.70;;;;;;4942661;28;20586;-73
2023/05/29 09:44:54;;;;;;;11.47;4.60;;;22.50;52.10;;;;;;4947096;28;20504;-72
2023/05/29 09:47:24;;;;;;;9.30;3.90;;;22.50;51.60;;;;;;4939376;28;20485;-71
2023/05/29 09:49:55;;;;;;;10.43;4.17;;;22.50;51.70;;;;;;4946754;28;20441;-71
2023/05/29 09:52:25;;;;;;;4.50;3.40;;;22.50;51.80;;;;;;4962442;28;20468;-72
2023/05/29 09:54:56;;;;;;;9.07;3.40;;;22.50;51.30;;;;;;4961704;28;20467;-72
2023/05/29 09:57:26;;;;;;;7.53;3.30;;;22.50;51.70;;;;;;4944771;28;20476;-72
2023/05/29 09:59:56;;;;;;;5.63;2.90;;;22.50;51.90;;;;;;4944498;28;20479;-70
2023/05/29 10:02:25;;;;;;;5.03;2.73;;;22.50;52.00;;;;;;4954915;28;20473;-72
2023/05/29 10:04:56;;;;;;;9.10;3.00;;;22.50;52.40;;;;;;4942006;29;20500;-72
2023/05/29 10:07:28;;;;;;;8.40;2.97;;;22.50;52.50;;;;;;4957609;28;20521;-72
2023/05/29 10:10:01;;;;;;;7.90;3.33;;;22.50;52.80;;;;;;4938870;28;20649;-72
2023/05/29 10:12:33;;;;;;;5.70;3.00;;;22.50;52.90;;;;;;4941984;28;20570;-72
2023/05/29 10:15:05;;;;;;;4.77;2.90;;;22.60;53.20;;;;;;4947382;29;20473;-72
2023/05/29 10:17:36;;;;;;;6.03;3.50;;;22.60;53.20;;;;;;4960547;28;20563;-71
2023/05/29 10:20:15;;;;;;;4.90;2.47;;;22.60;53.40;;;;;;4964126;28;20453;-71
2023/05/29 10:22:48;;;;;;;8.33;2.90;;;22.50;53.30;;;;;;4948806;28;20465;-71
2023/05/29 10:25:20;;;;;;;7.40;3.07;;;22.50;53.70;;;;;;4959307;28;20476;-72
2023/05/29 10:28:06;;;;;;;8.10;2.80;;;22.50;53.60;;;;;;4961977;28;20472;-72
2023/05/29 10:30:55;;;;;;;5.37;2.90;;;22.50;53.50;;;;;;4961028;28;20547;-72
2023/05/29 10:33:41;;;;;;;4.00;3.10;;;22.50;53.70;;;;;;4938499;29;20445;-70
2023/05/29 10:36:16;;;;;;;9.00;3.67;;;22.60;53.20;;;;;;4958867;28;20485;-71
2023/05/29 10:38:47;;;;;;;7.07;4.07;;;22.60;51.80;;;;;;4955252;28;20483;-72
2023/05/29 10:41:39;;;;;;;8.77;3.60;;;22.60;51.80;;;;;;4929511;29;20457;-72
2023/05/29 10:44:40;;;;;;;8.03;3.70;;;22.60;51.80;;;;;;4938307;29;20830;-71
2023/05/29 10:47:12;;;;;;;7.97;3.23;;;22.60;52.10;;;;;;4940258;28;20490;-70
2023/05/29 10:49:49;;;;;;;9.27;3.67;;;22.60;51.30;;;;;;4954480;28;20453;-71
2023/05/29 10:52:20;;;;;;;10.53;4.30;;;22.60;51.80;;;;;;4959757;28;20486;-73
2023/05/29 10:54:53;;;;;;;10.30;3.87;;;22.60;51.80;;;;;;4959807;28;20587;-71
2023/05/29 10:57:26;;;;;;;8.50;3.97;;;22.60;51.80;;;;;;4934781;28;20452;-71
2023/05/29 11:00:12;;;;;;;8.77;4.33;;;22.80;49.30;;;;;;4947362;28;20294;-72
2023/05/29 11:02:41;;;;;;;6.90;3.90;;;22.80;46.20;;;;;;4945572;28;20606;-70
2023/05/29 11:05:21;;;;;;;7.13;3.73;;;22.50;46.10;;;;;;4945633;29;20543;-70
2023/05/29 11:07:56;;;;;;;9.87;4.17;;;22.10;47.30;;;;;;4943689;28;20468;-73
2023/05/29 11:10:57;;;;;;;8.67;3.27;;;21.90;49.30;;;;;;4947227;29;20433;-73
2023/05/29 11:13:28;;;;;;;6.20;2.73;;;21.90;49.70;;;;;;4961866;28;20460;-70
2023/05/29 11:16:10;;;;;;;11.20;3.67;;;22.00;50.30;;;;;;4950199;29;20468;-71
2023/05/29 11:18:44;;;;;;;9.23;3.27;;;22.10;50.50;;;;;;4956202;28;20579;-71
2023/05/29 11:21:32;;;;;;;5.60;2.70;;;22.20;50.80;;;;;;4950135;28;20555;-72
2023/05/29 11:24:04;;;;;;;7.30;3.27;;;22.30;50.90;;;;;;4945850;28;20542;-72
2023/05/29 11:26:38;;;;;;;5.87;2.87;;;22.30;52.30;;;;;;4940460;29;21014;-70
2023/05/29 11:29:10;;;;;;;5.67;2.80;;;22.30;51.10;;;;;;4951692;29;20441;-72
2023/05/29 11:31:41;;;;;;;6.60;3.00;;;22.40;51.50;;;;;;4960950;28;20477;-68
2023/05/29 11:34:14;;;;;;;6.23;3.13;;;22.40;51.60;;;;;;4939282;28;20444;-69
2023/05/29 11:36:43;;;;;;;4.90;3.37;;;22.40;51.60;;;;;;4955072;28;20464;-68
2023/05/29 11:39:13;;;;;;;7.63;3.33;;;22.40;51.60;;;;;;4947373;28;20996;-68
2023/05/29 11:41:41;;;;;;;5.30;2.83;;;22.50;51.70;;;;;;4945210;29;20437;-69
2023/05/29 11:44:14;;;;;;;4.70;3.07;;;22.50;51.80;;;;;;4943895;29;20516;-68
2023/05/29 11:46:42;;;;;;;6.27;3.17;;;22.50;51.90;;;;;;4938194;28;20476;-69
2023/05/29 11:49:10;;;;;;;8.40;3.50;;;22.50;52.00;;;;;;4948095;28;20456;-69
2023/05/29 11:51:42;;;;;;;5.70;2.87;;;22.50;51.80;;;;;;4963267;28;20467;-68
2023/05/29 11:54:14;;;;;;;6.47;3.73;;;22.60;52.00;;;;;;4947851;28;20527;-69
2023/05/29 11:56:42;;;;;;;8.47;3.70;;;22.60;51.80;;;;;;4947638;28;20538;-69
2023/05/29 11:59:12;;;;;;;4.40;2.60;;;22.60;52.30;;;;;;4947754;28;20489;-68
2023/05/29 12:01:40;;;;;;;3.93;2.50;;;22.60;52.30;;;;;;4963013;28;20459;-69
2023/05/29 12:04:16;;;;;;;8.23;2.50;;;22.60;52.40;;;;;;4965113;28;20444;-68
2023/05/29 12:06:44;;;;;;;4.17;2.37;;;22.60;52.40;;;;;;4954138;28;20478;-69
2023/05/29 12:09:26;;;;;;;6.10;2.67;;;22.60;52.50;;;;;;4943063;28;20462;-68
2023/05/29 12:11:55;;;;;;;3.30;2.37;;;22.70;52.60;;;;;;4960966;28;20457;-69
2023/05/29 12:14:24;;;;;;;4.77;2.90;;;22.70;52.80;;;;;;4984437;28;20462;-68
2023/05/29 12:16:52;;;;;;;4.10;2.40;;;22.70;52.70;;;;;;4971259;28;21051;-70
2023/05/29 12:19:21;;;;;;;3.70;2.50;;;22.70;52.80;;;;;;4964124;28;20470;-68
2023/05/29 12:21:50;;;;;;;5.07;2.97;;;22.70;53.10;;;;;;4978156;28;20826;-68
2023/05/29 12:24:19;;;;;;;7.37;2.30;;;22.80;53.00;;;;;;4983057;28;20499;-69
2023/05/29 12:26:56;;;;;;;4.17;2.40;;;22.80;53.20;;;;;;4966990;28;21020;-68
2023/05/29 12:29:31;;;;;;;3.60;2.23;;;22.80;53.10;;;;;;4983347;28;20443;-70
2023/05/29 12:31:59;;;;;;;5.87;2.63;;;22.80;53.10;;;;;;4968219;28;20519;-68
2023/05/29 12:34:36;;;;;;;5.10;2.50;;;22.80;53.20;;;;;;4956733;28;20978;-67
2023/05/29 12:37:09;;;;;;;6.60;2.50;;;22.80;53.20;;;;;;4961898;28;20512;-68
2023/05/29 12:39:40;;;;;;;6.03;3.30;;;22.80;53.20;;;;;;4945992;29;20699;-68
2023/05/29 12:42:11;;;;;;;6.47;2.80;;;22.80;52.70;;;;;;4948703;28;20890;-69
2023/05/29 12:44:40;;;;;;;3.70;2.23;;;22.80;53.00;;;;;;4965511;28;20504;-69
2023/05/29 12:47:08;;;;;;;3.80;2.50;;;22.80;53.20;;;;;;4962701;28;20470;-69
2023/05/29 12:49:37;;;;;;;4.50;2.50;;;22.80;52.70;;;;;;4963627;28;20639;-67
2023/05/29 12:52:11;;;;;;;4.80;3.57;;;22.90;52.70;;;;;;4944080;28;20493;-68
2023/05/29 12:54:40;;;;;;;7.47;2.97;;;22.90;52.40;;;;;;4946930;28;20475;-69
2023/05/29 12:57:10;;;;;;;4.97;2.70;;;22.90;52.80;;;;;;4963674;28;20982;-69
2023/05/29 12:59:38;;;;;;;4.27;2.07;;;22.90;53.00;;;;;;4962609;28;20476;-68
2023/05/29 13:02:07;;;;;;;4.10;2.10;;;22.90;53.20;;;;;;4962817;28;20533;-68
2023/05/29 13:04:36;;;;;;;4.37;2.77;;;22.90;53.20;;;;;;4947290;28;20457;-68